createdAt,value
2019-04-14T00:01:06.719Z,101060.82
2019-04-14T00:02:47.686Z,101064.93
2019-04-14T00:04:29.265Z,101061.59
2019-04-14T00:06:09.156Z,101060.80
2019-04-14T00:07:49.454Z,101059.95
2019-04-14T00:09:29.416Z,101069.58
2019-04-14T00:11:08.735Z,101056.02
2019-04-14T00:12:51.293Z,101056.97
2019-04-14T00:14:33.549Z,101054.35
2019-04-14T00:16:14.146Z,101046.30
2019-04-14T00:17:54.393Z,101053.94
2019-04-14T00:19:34.886Z,101053.86
2019-04-14T00:21:13.388Z,101060.94
2019-04-14T00:22:53.421Z,101060.92
2019-04-14T00:24:33.555Z,101065.83
2019-04-14T00:26:27.448Z,101068.08
2019-04-14T00:28:07.355Z,101067.20
2019-04-14T00:29:47.933Z,101066.95
2019-04-14T00:31:30.598Z,101064.81
2019-04-14T00:33:12.767Z,101066.16
2019-04-14T00:34:59.413Z,101064.34
2019-04-14T00:36:56.603Z,101067.14
2019-04-14T00:38:39.067Z,101063.53
2019-04-14T00:40:21.804Z,101067.03
2019-04-14T00:42:25.616Z,101064.75
2019-04-14T00:44:14.647Z,101069.84
2019-04-14T00:46:00.564Z,101069.84
2019-04-14T00:47:59.496Z,101068.08
2019-04-14T00:49:31.258Z,101069.05
2019-04-14T00:51:11.283Z,101076.26
2019-04-14T00:52:50.199Z,101065.44
2019-04-14T00:54:30.429Z,101057.06
2019-04-14T00:56:10.490Z,101054.08
2019-04-14T00:57:50.900Z,101051.15
2019-04-14T00:59:31.202Z,101052.00
2019-04-14T01:01:11.230Z,101058.05
2019-04-14T01:02:51.534Z,101056.72
2019-04-14T01:04:31.615Z,101059.27
2019-04-14T01:06:12.138Z,101057.13
2019-04-14T01:07:52.342Z,101052.54
2019-04-14T01:09:32.693Z,101055.72
2019-04-14T01:11:12.232Z,101054.87
2019-04-14T01:12:51.769Z,101053.76
2019-04-14T01:14:32.013Z,101055.30
2019-04-14T01:16:17.016Z,101051.39
2019-04-14T01:17:52.891Z,101051.27
2019-04-14T01:19:32.994Z,101050.70
2019-04-14T01:21:17.447Z,101055.85
2019-04-14T01:22:57.467Z,101050.05
2019-04-14T01:24:40.314Z,101050.28
2019-04-14T01:26:20.395Z,101048.77
2019-04-14T01:28:00.295Z,101044.55
2019-04-14T01:29:40.516Z,101047.06
2019-04-14T01:31:20.664Z,101048.03
2019-04-14T01:33:01.108Z,101038.06
2019-04-14T01:34:41.176Z,101044.60
2019-04-14T01:36:21.251Z,101041.92
2019-04-14T01:38:03.804Z,101046.01
2019-04-14T01:39:44.147Z,101045.05
2019-04-14T01:41:24.423Z,101050.67
2019-04-14T01:43:03.863Z,101050.72
2019-04-14T01:44:43.850Z,101048.47
2019-04-14T01:46:30.952Z,101050.66
2019-04-14T01:48:08.467Z,101044.92
2019-04-14T01:49:48.684Z,101036.23
2019-04-14T01:51:30.912Z,101037.26
2019-04-14T01:53:31.914Z,101035.20
2019-04-14T01:55:28.819Z,101033.23
2019-04-14T01:57:24.550Z,101030.49
2019-04-14T01:59:04.528Z,101021.38
2019-04-14T02:00:44.792Z,101019.50
2019-04-14T02:02:25.438Z,101022.59
2019-04-14T02:04:04.985Z,101018.45
2019-04-14T02:05:43.248Z,101017.91
2019-04-14T02:07:23.354Z,101020.38
2019-04-14T02:09:03.276Z,101024.78
2019-04-14T02:10:43.735Z,101021.41
2019-04-14T02:12:23.507Z,101018.53
2019-04-14T02:14:02.082Z,101014.59
2019-04-14T02:15:40.455Z,101017.91
2019-04-14T02:17:20.300Z,101011.40
2019-04-14T02:18:58.611Z,101009.48
2019-04-14T02:20:38.279Z,101016.20
2019-04-14T02:22:18.134Z,101010.59
2019-04-14T02:23:56.317Z,101011.67
2019-04-14T02:25:34.420Z,101012.09
2019-04-14T02:27:14.859Z,101011.59
2019-04-14T02:28:55.006Z,101008.11
2019-04-14T02:30:48.460Z,101011.77
2019-04-14T02:32:49.830Z,101007.49
2019-04-14T02:34:34.546Z,101010.67
2019-04-14T02:36:14.201Z,101007.19
2019-04-14T02:37:57.103Z,101009.81
2019-04-14T02:41:21.565Z,101009.47
2019-04-14T02:42:59.210Z,101016.50
2019-04-14T02:44:48.698Z,101014.34
2019-04-14T02:46:26.419Z,101017.75
2019-04-14T02:49:51.426Z,101018.91
2019-04-14T02:53:10.975Z,101021.23
2019-04-14T02:56:27.951Z,101017.33
2019-04-14T02:58:10.245Z,101014.68
2019-04-14T02:59:56.251Z,101017.07
2019-04-14T03:01:54.830Z,101022.23
2019-04-14T03:03:16.093Z,101021.58
2019-04-14T03:05:18.628Z,101035.08
2019-04-14T03:06:33.355Z,101038.06
2019-04-14T03:08:18.777Z,101043.19
2019-04-14T03:10:16.471Z,101045.12
2019-04-14T03:11:40.274Z,101041.84
2019-04-14T03:16:51.975Z,101045.89
2019-04-14T03:20:47.585Z,101043.75
2019-04-14T03:24:15.834Z,101042.64
2019-04-14T03:25:59.408Z,101030.08
2019-04-14T03:29:40.784Z,101035.73
2019-04-14T03:33:18.505Z,101027.50
2019-04-14T03:34:54.650Z,101030.62
2019-04-14T03:36:58.300Z,101032.03
2019-04-14T03:38:15.265Z,101031.64
2019-04-14T03:39:46.615Z,101023.21
2019-04-14T03:41:31.555Z,101023.73
2019-04-14T03:43:09.924Z,101024.16
2019-04-14T03:44:50.376Z,101024.11
2019-04-14T03:49:54.334Z,101032.59
2019-04-14T03:51:40.439Z,101027.32
2019-04-14T03:53:26.835Z,101020.67
2019-04-14T03:54:44.099Z,101022.26
2019-04-14T03:56:14.382Z,101026.96
2019-04-14T03:57:54.470Z,101030.67
2019-04-14T03:59:34.596Z,101032.33
2019-04-14T04:01:13.023Z,101029.39
2019-04-14T04:02:53.304Z,101031.78
2019-04-14T04:04:33.898Z,101028.30
2019-04-14T04:06:13.672Z,101035.94
2019-04-14T04:07:53.898Z,101032.70
2019-04-14T04:09:45.355Z,101035.64
2019-04-14T04:11:25.851Z,101033.99
2019-04-14T04:13:04.393Z,101029.77
2019-04-14T04:14:44.247Z,101032.27
2019-04-14T04:16:26.902Z,101037.16
2019-04-14T04:18:13.503Z,101039.38
2019-04-14T04:19:55.617Z,101039.22
2019-04-14T04:21:49.488Z,101050.13
2019-04-14T04:23:51.130Z,101040.82
2019-04-14T04:25:33.299Z,101040.08
2019-04-14T04:27:29.283Z,101042.92
2019-04-14T04:29:14.209Z,101035.81
2019-04-14T04:30:53.753Z,101036.99
2019-04-14T04:32:51.630Z,101040.10
2019-04-14T04:34:49.085Z,101037.22
2019-04-14T04:36:31.279Z,101038.14
2019-04-14T04:38:18.202Z,101036.11
2019-04-14T04:40:00.668Z,101044.75
2019-04-14T04:41:40.752Z,101040.09
2019-04-14T04:43:21.162Z,101035.67
2019-04-14T04:45:01.683Z,101037.77
2019-04-14T04:46:41.922Z,101031.59
2019-04-14T04:48:24.178Z,101031.84
2019-04-14T04:50:04.356Z,101033.33
2019-04-14T04:51:42.826Z,101030.75
2019-04-14T04:53:22.363Z,101027.52
2019-04-14T04:55:00.920Z,101034.36
2019-04-14T04:56:40.523Z,101028.75
2019-04-14T04:58:19.526Z,101028.87
2019-04-14T05:00:00.502Z,101030.89
2019-04-14T05:01:38.732Z,101028.86
2019-04-14T05:03:18.917Z,101035.16
2019-04-14T05:05:01.314Z,101031.06
2019-04-14T05:07:03.564Z,101030.94
2019-04-14T05:08:52.242Z,101030.09
2019-04-14T05:10:34.994Z,101027.95
2019-04-14T05:12:26.286Z,101026.30
2019-04-14T05:14:11.495Z,101021.41
2019-04-14T05:15:53.184Z,101020.50
2019-04-14T05:17:38.893Z,101025.20
2019-04-14T05:19:25.729Z,101024.52
2019-04-14T05:46:06.051Z,101010.85
2019-04-14T05:47:52.163Z,101014.77
2019-04-14T05:49:44.294Z,101020.14
2019-04-14T05:51:22.140Z,101021.10
2019-04-14T05:53:04.351Z,101019.98
2019-04-14T05:54:51.974Z,101015.09
2019-04-14T05:56:45.268Z,101012.41
2019-04-14T05:58:34.376Z,101012.30
2019-04-14T06:00:14.584Z,101012.33
2019-04-14T06:01:55.532Z,101014.92
2019-04-14T06:03:36.460Z,101029.30
2019-04-14T06:05:17.239Z,101029.59
2019-04-14T06:06:59.943Z,101033.78
2019-04-14T06:08:44.300Z,101032.76
2019-04-14T06:10:34.373Z,101029.78
2019-04-14T06:12:17.656Z,101027.19
2019-04-14T06:14:00.777Z,101030.86
2019-04-14T06:15:40.098Z,101026.28
2019-04-14T06:17:20.707Z,101025.52
2019-04-14T06:19:00.141Z,101028.47
2019-04-14T06:20:40.000Z,101028.56
2019-04-14T06:22:21.839Z,101029.37
2019-04-14T06:24:00.360Z,101028.41
2019-04-14T06:25:40.021Z,101027.05
2019-04-14T06:27:19.788Z,101030.30
2019-04-14T06:29:00.216Z,101039.19
2019-04-14T06:30:41.255Z,101037.83
2019-04-14T06:32:22.201Z,101034.39
2019-04-14T06:34:03.500Z,101033.05
2019-04-14T06:35:44.404Z,101029.77
2019-04-14T06:37:23.607Z,101032.56
2019-04-14T06:39:22.683Z,101033.05
2019-04-14T06:41:03.428Z,101027.91
2019-04-14T06:42:42.048Z,101030.41
2019-04-14T06:44:24.894Z,101029.02
2019-04-14T06:46:04.647Z,101033.17
2019-04-14T06:47:45.491Z,101025.05
2019-04-14T06:49:23.795Z,101034.47
2019-04-14T06:51:02.663Z,101032.81
2019-04-14T06:52:42.488Z,101027.88
2019-04-14T06:54:21.081Z,101031.55
2019-04-14T06:55:58.967Z,101035.52
2019-04-14T06:57:38.931Z,101035.75
2019-04-14T06:59:22.422Z,101040.66
2019-04-14T07:01:03.533Z,101041.39
2019-04-14T07:02:41.773Z,101042.28
2019-04-14T07:04:20.182Z,101039.88
2019-04-14T07:06:00.330Z,101042.36
2019-04-14T07:07:40.039Z,101036.05
2019-04-14T07:09:19.261Z,101039.50
2019-04-14T07:11:00.668Z,101029.42
2019-04-14T07:12:42.907Z,101036.92
2019-04-14T07:14:22.214Z,101031.87
2019-04-14T07:16:00.543Z,101031.52
2019-04-14T07:17:39.932Z,101026.63
2019-04-14T07:19:19.343Z,101032.95
2019-04-14T07:20:57.579Z,101019.90
2019-04-14T07:22:36.475Z,101022.89
2019-04-14T07:24:14.214Z,101015.79
2019-04-14T07:25:53.048Z,101018.28
2019-04-14T07:27:31.889Z,101022.06
2019-04-14T07:29:14.793Z,101022.39
2019-04-14T07:30:56.337Z,101021.20
2019-04-14T07:32:57.101Z,101010.84
2019-04-14T07:34:49.599Z,101011.50
2019-04-14T07:36:52.208Z,101011.13
2019-04-14T07:38:38.775Z,101008.89
2019-04-14T07:40:37.025Z,101009.01
2019-04-14T07:42:23.762Z,101012.80
2019-04-14T07:44:21.479Z,101012.52
2019-04-14T07:46:01.583Z,101015.91
2019-04-14T07:47:46.776Z,101009.91
2019-04-14T07:51:46.713Z,101006.41
2019-04-14T07:53:42.287Z,101009.81
2019-04-14T07:55:29.075Z,101002.59
2019-04-14T07:57:10.883Z,101009.66
2019-04-14T07:59:09.195Z,101002.08
2019-04-14T08:00:51.241Z,101005.88
2019-04-14T08:02:41.799Z,101004.00
2019-04-14T08:04:22.396Z,101005.54
2019-04-14T08:06:02.509Z,101007.56
2019-04-14T08:07:43.868Z,101007.22
2019-04-14T08:09:21.557Z,101009.55
2019-04-14T08:11:01.557Z,101009.05
2019-04-14T08:12:44.640Z,101009.50
2019-04-14T08:14:24.280Z,101015.95
2019-04-14T08:16:04.289Z,101007.50
2019-04-14T08:17:46.919Z,101012.83
2019-04-14T08:19:24.780Z,101012.20
2019-04-14T08:21:05.118Z,101016.52
2019-04-14T08:22:44.954Z,101013.12
2019-04-14T08:24:26.786Z,101014.73
2019-04-14T08:26:06.253Z,101009.23
2019-04-14T08:27:46.481Z,101008.50
2019-04-14T08:29:25.468Z,101017.66
2019-04-14T08:31:05.885Z,101015.25
2019-04-14T08:32:44.390Z,101011.60
2019-04-14T08:34:25.159Z,101009.69
2019-04-14T08:36:04.669Z,101009.35
2019-04-14T08:37:49.188Z,101012.11
2019-04-14T08:39:28.795Z,101012.09
2019-04-14T08:41:12.492Z,101009.47
2019-04-14T08:42:58.178Z,101013.01
2019-04-14T08:44:49.436Z,101015.28
2019-04-14T08:46:50.289Z,101015.48
2019-04-14T08:48:36.997Z,101012.27
2019-04-14T08:50:25.839Z,101007.91
2019-04-14T08:52:11.869Z,101012.03
2019-04-14T08:53:52.894Z,101006.69
2019-04-14T08:55:56.410Z,101002.77
2019-04-14T08:57:42.644Z,101002.02
2019-04-14T08:59:41.992Z,101001.73
2019-04-14T09:01:24.097Z,100999.33
2019-04-14T09:03:29.648Z,101002.18
2019-04-14T09:05:13.175Z,101002.77
2019-04-14T09:06:58.159Z,101001.97
2019-04-14T09:08:41.079Z,100999.74
2019-04-14T09:10:24.469Z,100998.03
2019-04-14T09:12:14.782Z,100991.30
2019-04-14T09:13:48.789Z,100995.44
2019-04-14T09:15:33.207Z,100999.78
2019-04-14T09:17:13.694Z,100997.69
2019-04-14T09:18:53.757Z,100999.70
2019-04-14T09:20:33.307Z,100995.73
2019-04-14T09:22:16.207Z,100994.69
2019-04-14T09:23:56.742Z,100997.53
2019-04-14T09:25:41.125Z,100993.55
2019-04-14T09:27:19.455Z,100988.06
2019-04-14T09:28:57.762Z,100991.67
2019-04-14T09:30:38.145Z,100985.63
2019-04-14T09:32:18.387Z,100983.16
2019-04-14T09:33:57.781Z,100991.23
2019-04-14T09:35:37.260Z,100987.88
2019-04-14T09:37:15.525Z,100985.97
2019-04-14T09:38:58.891Z,100987.95
2019-04-14T09:40:37.789Z,100992.27
2019-04-14T09:42:17.411Z,100986.94
2019-04-14T09:43:58.570Z,100987.90
2019-04-14T09:45:39.654Z,100988.92
2019-04-14T09:47:17.499Z,100996.80
2019-04-14T09:48:57.315Z,100992.46
2019-04-14T09:50:36.036Z,100993.59
2019-04-14T09:52:13.690Z,100991.47
2019-04-14T09:53:58.399Z,100990.13
2019-04-14T09:55:41.081Z,100987.80
2019-04-14T09:57:24.080Z,100993.20
2019-04-14T09:59:06.491Z,100993.02
2019-04-14T10:02:50.832Z,100997.50
2019-04-14T10:04:48.686Z,100988.35
2019-04-14T10:06:26.395Z,100994.69
2019-04-14T10:08:06.374Z,100990.00
2019-04-14T10:09:44.808Z,100989.48
2019-04-14T10:11:22.337Z,100991.56
2019-04-14T10:12:59.878Z,100993.56
2019-04-14T10:14:39.028Z,100982.23
2019-04-14T10:16:18.736Z,100987.47
2019-04-14T10:17:57.489Z,100990.98
2019-04-14T10:19:35.396Z,100986.42
2019-04-14T10:21:17.545Z,100978.30
2019-04-14T10:22:54.949Z,100980.16
2019-04-14T10:24:33.415Z,100981.70
2019-04-14T10:26:11.373Z,100980.45
2019-04-14T10:27:49.594Z,100983.51
2019-04-14T10:29:27.713Z,100985.92
2019-04-14T10:31:06.597Z,100982.28
2019-04-14T10:32:44.481Z,100988.07
2019-04-14T10:34:22.937Z,100984.53
2019-04-14T10:36:00.481Z,100991.38
2019-04-14T10:38:30.873Z,100988.00
2019-04-14T10:39:45.095Z,100991.72
2019-04-14T10:41:23.532Z,100994.05
2019-04-14T10:44:47.602Z,100987.17
2019-04-14T10:45:10.932Z,100992.68
2019-04-14T10:46:33.761Z,100990.73
2019-04-14T10:48:18.200Z,100984.73
2019-04-14T10:49:57.663Z,100987.06
2019-04-14T10:51:39.638Z,100985.87
2019-04-14T10:53:22.015Z,100987.28
2019-04-14T10:55:19.067Z,100995.06
2019-04-14T10:57:05.112Z,100988.82
2019-04-14T10:58:43.802Z,100993.41
2019-04-14T11:00:37.132Z,100991.73
2019-04-14T11:02:37.302Z,100993.72
2019-04-14T11:04:17.905Z,100985.89
2019-04-14T11:06:11.550Z,100986.87
2019-04-14T11:07:59.728Z,100981.33
2019-04-14T11:09:37.211Z,100982.14
2019-04-14T11:11:14.931Z,100991.11
2019-04-14T11:12:52.257Z,100987.72
2019-04-14T11:14:30.641Z,100984.60
2019-04-14T11:16:09.387Z,100981.44
2019-04-14T11:17:47.308Z,100980.26
2019-04-14T11:19:24.998Z,100978.95
2019-04-14T11:21:02.315Z,100980.83
2019-04-14T11:22:40.298Z,100979.30
2019-04-14T11:24:18.205Z,100975.38
2019-04-14T11:25:55.817Z,100979.89
2019-04-14T11:27:34.124Z,100979.67
2019-04-14T11:29:11.980Z,100977.92
2019-04-14T11:30:49.768Z,100974.98
2019-04-14T11:32:28.915Z,100974.08
2019-04-14T11:34:06.486Z,100973.95
2019-04-14T11:35:46.904Z,100973.57
2019-04-14T11:39:24.935Z,100980.27
2019-04-14T11:41:05.951Z,100971.12
2019-04-14T11:42:52.304Z,100965.70
2019-04-14T11:44:22.738Z,100974.91
2019-04-14T11:46:03.907Z,100972.83
2019-04-14T11:47:43.819Z,100968.96
2019-04-14T11:49:25.225Z,100966.09
2019-04-14T11:51:06.544Z,100962.34
2019-04-14T11:52:44.548Z,100955.80
2019-04-14T11:54:22.096Z,100964.52
2019-04-14T11:56:00.437Z,100973.06
2019-04-14T11:57:38.237Z,100965.50
2019-04-14T17:48:38.695Z,100973.16
2019-04-14T17:50:21.807Z,100975.91
2019-04-14T17:52:17.742Z,100975.06
2019-04-14T17:54:03.174Z,100973.41
2019-04-14T17:55:51.794Z,100978.85
2019-04-14T17:57:39.064Z,100975.06
2019-04-14T17:59:19.504Z,100978.03
2019-04-14T18:01:15.656Z,100977.13
2019-04-14T18:03:03.630Z,100979.39
2019-04-14T18:05:01.731Z,100980.42
2019-04-14T18:06:46.739Z,100984.12
2019-04-14T18:08:41.749Z,100986.75
2019-04-14T18:10:29.555Z,100980.03
2019-04-14T18:12:14.676Z,100989.08
2019-04-14T18:14:16.295Z,100984.73
2019-04-14T18:15:58.779Z,100983.34
2019-04-14T18:17:43.386Z,100981.39
2019-04-14T18:19:30.562Z,100980.35
2019-04-14T18:21:10.968Z,100971.63
2019-04-14T18:22:50.346Z,100978.70
2019-04-14T18:24:28.157Z,100977.89
2019-04-14T18:26:07.473Z,100978.83
2019-04-14T18:28:02.433Z,100986.63
2019-04-14T18:29:42.008Z,100984.27
2019-04-14T18:31:22.904Z,100983.66
2019-04-14T18:33:03.749Z,100987.10
2019-04-14T18:34:51.222Z,100983.57
2019-04-14T18:36:50.429Z,100981.84
2019-04-14T18:38:30.698Z,100984.00
2019-04-14T18:40:12.588Z,100979.84
2019-04-14T18:42:15.694Z,100983.34
2019-04-14T18:44:14.464Z,100980.71
2019-04-14T18:45:56.462Z,100973.30
2019-04-14T18:47:56.358Z,100980.53
2019-04-14T18:49:52.704Z,100972.34
2019-04-14T18:51:39.901Z,100979.75
2019-04-14T18:53:34.211Z,100983.55
2019-04-14T18:55:33.070Z,100987.67
2019-04-14T18:57:17.794Z,100980.77
2019-04-14T18:59:16.591Z,100975.92
2019-04-14T19:01:05.200Z,100980.10
2019-04-14T19:02:45.380Z,100982.30
2019-04-14T19:04:25.158Z,100986.81
2019-04-14T19:06:11.384Z,100983.70
2019-04-14T19:07:52.910Z,100985.37
2019-04-14T19:09:33.117Z,100981.55
2019-04-14T19:11:16.762Z,100979.82
2019-04-14T19:13:16.877Z,100980.34
2019-04-14T19:14:59.793Z,100979.82
2019-04-14T19:16:50.741Z,100983.75
2019-04-14T19:18:49.871Z,100974.78
2019-04-14T19:20:51.824Z,100977.91
2019-04-14T19:25:06.742Z,100976.66
2019-04-14T19:25:23.882Z,100978.91
2019-04-14T19:27:03.477Z,100979.87
2019-04-14T19:28:42.845Z,100980.95
2019-04-14T19:30:24.402Z,100971.77
2019-04-14T19:32:03.015Z,100979.86
2019-04-14T19:33:43.317Z,100983.31
2019-04-14T19:35:26.809Z,100982.11
2019-04-14T19:37:07.311Z,100986.14
2019-04-14T19:38:46.230Z,100981.30
2019-04-14T19:40:24.652Z,100978.19
2019-04-14T19:42:05.450Z,100982.16
2019-04-14T19:43:47.196Z,100983.16
2019-04-14T19:45:29.434Z,100978.19
2019-04-14T19:47:08.734Z,100973.64
2019-04-14T19:48:46.655Z,100978.86
2019-04-14T19:50:25.992Z,100978.95
2019-04-14T19:52:04.225Z,100980.39
2019-04-14T19:53:45.651Z,100979.00
2019-04-14T19:55:26.950Z,100978.75
2019-04-14T19:57:06.296Z,100985.84
2019-04-14T19:58:46.474Z,100985.98
2019-04-14T20:00:27.892Z,100981.92
2019-04-14T20:02:06.645Z,100987.33
2019-04-14T20:03:46.876Z,100984.69
2019-04-14T20:05:26.075Z,100989.09
2019-04-14T20:07:05.909Z,100986.23
2019-04-14T20:08:45.100Z,100984.11
2019-04-14T20:10:25.486Z,100986.02
2019-04-14T20:12:05.924Z,100985.59
2019-04-14T20:13:53.444Z,100977.95
2019-04-14T20:15:37.106Z,100983.11
2019-04-14T20:17:29.487Z,100980.23
2019-04-14T20:19:11.056Z,100986.36
2019-04-14T20:21:16.466Z,100983.30
2019-04-14T20:23:22.512Z,100983.87
2019-04-14T20:25:09.910Z,100985.07
2019-04-14T20:27:12.681Z,100982.00
2019-04-14T20:28:57.461Z,100986.16
2019-04-14T20:30:45.501Z,100988.54
2019-04-14T20:32:32.459Z,100983.86
2019-04-14T20:34:12.155Z,100985.42
2019-04-14T20:35:52.223Z,100984.30
2019-04-14T20:37:32.858Z,100981.01
2019-04-14T20:39:16.652Z,100983.30
2019-04-14T20:40:55.344Z,100982.73
2019-04-14T20:42:36.002Z,100978.51
2019-04-14T20:44:15.572Z,100986.12
2019-04-14T20:45:55.031Z,100978.67
2019-04-14T20:47:33.956Z,100982.14
2019-04-14T20:49:12.078Z,100986.77
2019-04-14T20:50:53.381Z,100976.73
2019-04-14T20:52:33.131Z,100980.80
2019-04-14T20:54:13.362Z,100984.16
2019-04-14T20:55:52.517Z,100984.12
2019-04-14T20:57:32.558Z,100988.06
2019-04-14T20:59:12.429Z,100985.50
2019-04-14T21:00:52.541Z,100987.32
2019-04-14T21:02:33.650Z,100984.52
2019-04-14T21:04:31.311Z,100986.07
2019-04-14T21:06:15.135Z,100993.58
2019-04-14T21:07:55.109Z,100992.13
2019-04-14T21:09:38.593Z,100989.13
2019-04-14T21:11:25.866Z,100995.63
2019-04-14T21:13:08.579Z,100996.92
2019-04-14T21:15:10.422Z,100995.23
2019-04-14T21:16:53.953Z,100996.97
2019-04-14T21:18:39.148Z,100998.02
2019-04-14T21:20:24.867Z,100994.36
2019-04-14T21:22:25.913Z,100992.44
2019-04-14T21:24:07.267Z,100991.36
2019-04-14T21:26:00.382Z,101002.14
2019-04-14T21:27:42.224Z,100995.45
2019-04-14T21:29:22.468Z,100997.76
2019-04-14T21:31:06.936Z,100987.23
2019-04-14T21:32:54.805Z,100996.67
2019-04-14T21:34:38.917Z,100999.03
2019-04-14T21:36:23.166Z,100997.58
2019-04-14T21:38:04.024Z,100999.06
2019-04-14T21:39:55.373Z,100995.11
2019-04-14T21:41:36.717Z,100997.39
2019-04-14T21:43:19.504Z,100996.48
2019-04-14T21:44:59.870Z,100996.95
2019-04-14T21:46:37.446Z,100999.59
2019-04-14T21:48:18.581Z,100992.13
2019-04-14T21:50:08.852Z,100995.30
2019-04-14T21:51:57.139Z,100996.92
2019-04-14T21:53:39.255Z,100997.45
2019-04-14T21:55:22.006Z,100997.86
2019-04-14T21:57:15.313Z,100992.09
2019-04-14T21:59:03.845Z,100985.50
2019-04-14T22:01:01.955Z,100986.81
2019-04-14T22:02:59.702Z,100983.26
2019-04-14T22:04:41.221Z,100977.50
2019-04-14T22:06:23.897Z,100969.07
2019-04-14T22:08:05.011Z,100973.86
2019-04-14T22:09:45.269Z,100966.83
2019-04-14T22:11:29.838Z,100968.47
2019-04-14T22:13:09.354Z,100964.09
2019-04-14T22:14:47.902Z,100962.87
2019-04-14T22:16:28.846Z,100961.13
2019-04-14T22:18:13.036Z,100964.30
2019-04-14T22:19:52.704Z,100962.50
2019-04-14T22:21:31.204Z,100963.28
2019-04-14T22:23:13.395Z,100965.58
2019-04-14T22:24:52.822Z,100962.97
2019-04-14T22:26:33.010Z,100968.34
2019-04-14T22:28:15.377Z,100965.48
2019-04-14T22:29:56.499Z,100963.75
2019-04-14T22:31:36.168Z,100965.58
2019-04-14T22:33:19.370Z,100966.02
2019-04-14T22:34:58.833Z,100960.57
2019-04-14T22:36:39.120Z,100962.81
2019-04-14T22:38:18.386Z,100967.42
2019-04-14T22:39:58.249Z,100968.34
2019-04-14T22:41:37.562Z,100961.22
2019-04-14T22:43:18.655Z,100963.81
2019-04-14T22:44:57.953Z,100959.83
2019-04-14T22:46:37.246Z,100961.63
2019-04-14T22:48:19.402Z,100965.64
2019-04-14T22:49:59.398Z,100966.55
2019-04-14T22:51:39.248Z,100964.34
2019-04-14T22:53:19.293Z,100959.42
2019-04-14T22:54:59.189Z,100955.41
2019-04-14T22:56:39.715Z,100954.56
2019-04-14T22:58:20.192Z,100952.27
2019-04-14T22:59:59.545Z,100952.30
2019-04-14T23:01:40.737Z,100955.78
2019-04-14T23:03:21.716Z,100952.64
2019-04-14T23:05:09.420Z,100952.79
2019-04-14T23:07:07.612Z,100951.80
2019-04-14T23:08:52.533Z,100950.48
2019-04-14T23:10:33.900Z,100944.36
2019-04-14T23:12:18.763Z,100941.68
2019-04-14T23:14:00.638Z,100942.61
2019-04-14T23:15:40.824Z,100939.03
2019-04-14T23:17:29.595Z,100940.40
2019-04-14T23:19:11.081Z,100943.42
2019-04-14T23:21:08.348Z,100939.94
2019-04-14T23:23:01.584Z,100942.64
2019-04-14T23:24:40.871Z,100940.83
2019-04-14T23:26:21.861Z,100941.33
2019-04-14T23:28:01.345Z,100939.50
2019-04-14T23:29:41.486Z,100926.16
2019-04-14T23:31:21.438Z,100923.04
2019-04-14T23:32:59.833Z,100924.87
2019-04-14T23:34:39.710Z,100919.49
2019-04-14T23:36:19.029Z,100923.53
2019-04-14T23:37:59.268Z,100927.16
2019-04-14T23:39:39.385Z,100925.42
2019-04-14T23:41:19.658Z,100920.12
2019-04-14T23:42:59.007Z,100924.55
2019-04-14T23:44:38.731Z,100929.45
2019-04-14T23:46:18.016Z,100928.12
2019-04-14T23:47:57.763Z,100930.81
2019-04-14T23:49:35.969Z,100933.95
2019-04-14T23:51:17.155Z,100934.82
2019-04-14T23:52:58.089Z,100932.95
2019-04-14T23:54:39.828Z,100933.05
2019-04-14T23:56:19.167Z,100936.60
2019-04-14T23:57:59.722Z,100934.82
2019-04-14T23:59:38.400Z,100935.77
